createdAt,value
2022-11-17T00:01:46.245Z,7.90
2022-11-17T00:04:17.331Z,4.00
2022-11-17T00:06:48.699Z,4.20
2022-11-17T00:09:19.932Z,4.80
2022-11-17T00:12:09.404Z,4.40
2022-11-17T00:14:41.574Z,7.60
2022-11-17T00:17:14.561Z,6.80
2022-11-17T00:20:03.834Z,4.40
2022-11-17T00:22:35.080Z,4.40
2022-11-17T00:25:06.966Z,4.00
2022-11-17T00:27:39.006Z,3.50
2022-11-17T00:30:32.781Z,3.30
2022-11-17T00:33:23.303Z,4.00
2022-11-17T00:35:56.356Z,6.40
2022-11-17T00:38:27.420Z,3.70
2022-11-17T00:40:59.687Z,4.20
2022-11-17T00:43:30.759Z,5.30
2022-11-17T00:46:01.771Z,4.40
2022-11-17T00:48:32.920Z,4.70
2022-11-17T00:51:07.887Z,7.50
2022-11-17T00:53:39.203Z,4.40
2022-11-17T00:56:11.063Z,4.30
2022-11-17T00:58:42.316Z,5.20
2022-11-17T01:01:13.811Z,11.00
2022-11-17T01:03:45.220Z,5.20
2022-11-17T01:06:18.533Z,4.20
2022-11-17T01:08:50.600Z,4.80
2022-11-17T01:11:22.031Z,4.30
2022-11-17T01:13:58.091Z,4.70
2022-11-17T01:16:30.568Z,4.50
2022-11-17T01:19:03.556Z,6.30
2022-11-17T01:21:35.417Z,3.90
2022-11-17T01:24:07.848Z,4.10
2022-11-17T01:26:40.373Z,3.90
2022-11-17T01:29:14.696Z,5.20
2022-11-17T01:31:50.442Z,3.10
2022-11-17T01:34:21.588Z,4.30
2022-11-17T01:37:10.550Z,7.10
2022-11-17T01:39:41.796Z,4.20
2022-11-17T01:42:17.449Z,4.20
2022-11-17T01:45:06.818Z,5.30
2022-11-17T01:47:47.699Z,3.60
2022-11-17T01:50:29.693Z,4.00
2022-11-17T01:53:03.622Z,3.20
2022-11-17T01:55:39.691Z,3.00
2022-11-17T01:58:13.400Z,5.50
2022-11-17T02:00:44.224Z,3.80
2022-11-17T02:03:15.450Z,3.70
2022-11-17T02:05:53.146Z,3.70
2022-11-17T02:08:27.905Z,4.50
2022-11-17T02:11:00.141Z,4.90
2022-11-17T02:13:31.713Z,4.50
2022-11-17T02:16:02.647Z,4.30
2022-11-17T02:18:33.690Z,6.80
2022-11-17T02:21:24.107Z,3.70
2022-11-17T02:24:33.835Z,3.90
2022-11-17T02:27:31.582Z,3.40
2022-11-17T02:30:05.799Z,3.20
2022-11-17T02:32:43.878Z,4.10
2022-11-17T02:35:25.880Z,5.40
2022-11-17T02:38:07.454Z,3.50
2022-11-17T02:40:45.338Z,4.10
2022-11-17T02:43:37.581Z,4.20
2022-11-17T02:46:15.310Z,3.70
2022-11-17T02:48:50.804Z,3.70
2022-11-17T02:51:24.495Z,3.20
2022-11-17T02:54:00.274Z,5.40
2022-11-17T02:56:31.100Z,3.70
2022-11-17T02:59:05.980Z,3.90
2022-11-17T03:01:57.987Z,4.20
2022-11-17T03:04:39.118Z,6.20
2022-11-17T03:07:27.599Z,3.80
2022-11-17T03:10:09.881Z,4.00
2022-11-17T03:12:48.103Z,4.30
2022-11-17T03:15:30.089Z,3.80
2022-11-17T03:18:10.144Z,4.70
2022-11-17T03:20:51.345Z,4.10
2022-11-17T03:23:28.815Z,5.50
2022-11-17T03:26:02.914Z,4.70
2022-11-17T03:28:35.534Z,3.50
2022-11-17T03:31:09.432Z,4.80
2022-11-17T03:33:44.250Z,3.60
2022-11-17T03:36:17.847Z,3.90
2022-11-17T03:38:56.601Z,3.70
2022-11-17T03:41:31.334Z,5.40
2022-11-17T03:44:04.802Z,4.30
2022-11-17T03:49:39.958Z,3.80
2022-11-17T03:52:11.036Z,7.10
2022-11-17T03:54:42.895Z,7.00
2022-11-17T03:57:18.652Z,6.20
2022-11-17T03:59:57.068Z,5.10
2022-11-17T04:02:29.120Z,5.40
2022-11-17T04:05:09.187Z,4.70
2022-11-17T04:07:42.362Z,5.10
2022-11-17T04:10:15.456Z,5.00
2022-11-17T04:13:04.079Z,9.10
2022-11-17T04:15:52.375Z,4.00
2022-11-17T04:18:24.539Z,4.90
2022-11-17T04:20:57.835Z,4.40
2022-11-17T04:23:28.890Z,8.30
2022-11-17T04:26:17.842Z,6.30
2022-11-17T04:28:51.558Z,5.00
2022-11-17T04:31:24.897Z,6.50
2022-11-17T04:33:56.970Z,11.70
2022-11-17T04:36:29.490Z,4.30
2022-11-17T04:39:01.768Z,7.80
2022-11-17T04:41:50.888Z,4.80
2022-11-17T04:44:23.608Z,4.80
2022-11-17T04:46:55.172Z,5.10
2022-11-17T04:49:27.206Z,5.60
2022-11-17T04:51:58.135Z,6.20
2022-11-17T04:54:29.503Z,5.00
2022-11-17T04:57:00.562Z,4.20
2022-11-17T04:59:31.607Z,5.30
2022-11-17T05:02:05.963Z,4.90
2022-11-17T05:04:55.092Z,5.10
2022-11-17T05:07:26.144Z,3.90
2022-11-17T05:09:57.066Z,4.40
2022-11-17T05:12:45.730Z,5.40
2022-11-17T05:15:36.965Z,5.20
2022-11-17T05:18:08.031Z,4.70
2022-11-17T05:20:38.996Z,7.60
2022-11-17T05:23:27.288Z,4.20
2022-11-17T05:25:58.276Z,6.00
2022-11-17T05:28:34.029Z,4.10
2022-11-17T05:31:05.892Z,5.00
2022-11-17T05:33:38.096Z,3.80
2022-11-17T05:36:11.120Z,6.70
2022-11-17T05:38:42.781Z,4.50
2022-11-17T05:41:13.959Z,15.80
2022-11-17T05:43:45.454Z,3.70
2022-11-17T05:46:16.440Z,4.40
2022-11-17T05:48:48.890Z,4.00
2022-11-17T05:51:21.201Z,4.60
2022-11-17T05:53:52.702Z,7.20
2022-11-17T05:56:34.148Z,6.40
2022-11-17T05:59:16.342Z,5.20
2022-11-17T06:01:51.936Z,3.80
2022-11-17T06:04:23.762Z,4.00
2022-11-17T06:06:59.187Z,7.30
2022-11-17T06:09:34.272Z,5.00
2022-11-17T06:12:06.641Z,4.00
2022-11-17T06:14:39.804Z,4.00
2022-11-17T06:17:22.104Z,4.30
2022-11-17T06:19:58.895Z,4.40
2022-11-17T06:22:31.511Z,5.30
2022-11-17T06:25:04.704Z,4.90
2022-11-17T06:27:36.678Z,4.10
2022-11-17T06:30:09.260Z,3.50
2022-11-17T06:32:43.866Z,3.70
2022-11-17T06:35:16.695Z,4.00
2022-11-17T06:37:47.685Z,3.60
2022-11-17T06:40:19.446Z,5.00
2022-11-17T06:43:08.688Z,5.00
2022-11-17T06:45:41.504Z,5.00
2022-11-17T06:48:14.266Z,4.60
2022-11-17T06:50:45.838Z,4.70
2022-11-17T06:53:16.966Z,6.80
2022-11-17T06:55:51.114Z,3.60
2022-11-17T06:58:22.082Z,6.50
2022-11-17T07:00:53.263Z,3.90
2022-11-17T07:03:24.340Z,4.00
2022-11-17T07:05:55.488Z,4.20
2022-11-17T07:08:26.536Z,4.40
2022-11-17T07:11:02.793Z,3.30
2022-11-17T07:13:34.743Z,3.40
2022-11-17T07:16:08.255Z,3.40
2022-11-17T07:18:41.660Z,4.30
2022-11-17T07:21:14.881Z,3.40
2022-11-17T07:23:46.286Z,3.00
2022-11-17T07:26:17.447Z,3.70
2022-11-17T07:28:48.345Z,4.10
2022-11-17T07:31:19.430Z,5.70
2022-11-17T07:33:51.191Z,3.80
2022-11-17T07:36:22.274Z,4.70
2022-11-17T07:38:53.204Z,5.80
2022-11-17T07:41:24.317Z,3.90
2022-11-17T07:43:55.361Z,3.60
2022-11-17T07:46:26.811Z,4.10
2022-11-17T07:48:58.128Z,5.80
2022-11-17T07:51:29.209Z,5.10
2022-11-17T07:54:00.248Z,4.60
2022-11-17T07:56:31.310Z,5.90
2022-11-17T07:59:02.334Z,4.70
2022-11-17T08:01:33.863Z,4.80
2022-11-17T08:04:05.089Z,6.40
2022-11-17T08:06:37.306Z,5.50
2022-11-17T08:09:10.809Z,4.60
2022-11-17T08:11:41.777Z,4.80
2022-11-17T08:14:12.805Z,4.10
2022-11-17T08:16:43.831Z,5.60
2022-11-17T08:19:14.974Z,5.70
2022-11-17T08:21:45.939Z,8.30
2022-11-17T08:24:17.164Z,5.40
2022-11-17T08:26:48.205Z,6.00
2022-11-17T08:29:19.132Z,5.50
2022-11-17T08:31:50.215Z,5.50
2022-11-17T08:34:21.219Z,5.20
2022-11-17T08:36:52.275Z,8.10
2022-11-17T08:39:23.422Z,5.80
2022-11-17T08:41:55.147Z,6.00
2022-11-17T08:44:26.149Z,13.50
2022-11-17T08:46:57.149Z,5.20
2022-11-17T08:49:28.259Z,5.90
2022-11-17T08:51:59.263Z,7.30
2022-11-17T08:54:30.289Z,9.40
2022-11-17T08:57:01.613Z,6.30
2022-11-17T08:59:32.595Z,6.50
2022-11-17T09:02:03.546Z,7.70
2022-11-17T09:04:34.603Z,7.90
2022-11-17T09:07:06.020Z,7.00
2022-11-17T09:09:37.160Z,9.00
2022-11-17T09:12:08.717Z,7.10
2022-11-17T09:14:40.002Z,8.10
2022-11-17T09:17:11.114Z,6.10
2022-11-17T09:19:42.068Z,7.10
2022-11-17T09:22:12.992Z,7.00
2022-11-17T09:24:43.996Z,5.60
2022-11-17T09:27:15.072Z,6.40
2022-11-17T09:29:46.226Z,7.30
2022-11-17T09:32:19.435Z,6.10
2022-11-17T09:34:51.316Z,7.20
2022-11-17T09:37:22.735Z,7.70
2022-11-17T09:39:53.767Z,7.50
2022-11-17T09:42:25.616Z,6.20
2022-11-17T09:45:03.640Z,7.00
2022-11-17T09:47:42.312Z,9.20
2022-11-17T09:50:22.348Z,7.50
2022-11-17T09:53:05.496Z,7.20
2022-11-17T09:55:41.074Z,7.60
2022-11-17T09:58:20.324Z,10.30
2022-11-17T10:00:52.943Z,10.20
2022-11-17T10:03:28.449Z,7.90
2022-11-17T10:06:02.238Z,9.90
2022-11-17T10:08:40.546Z,7.70
2022-11-17T10:11:32.200Z,7.40
2022-11-17T10:14:11.926Z,9.40
2022-11-17T10:16:45.911Z,8.10
2022-11-17T10:19:23.266Z,9.80
2022-11-17T10:21:58.422Z,8.10
2022-11-17T10:24:42.277Z,9.00
2022-11-17T10:27:23.152Z,10.40
2022-11-17T10:30:02.415Z,10.50
2022-11-17T10:32:37.956Z,10.00
2022-11-17T10:35:20.961Z,13.40
2022-11-17T10:37:58.896Z,8.70
2022-11-17T10:40:31.818Z,8.00
2022-11-17T10:43:17.802Z,8.30
2022-11-17T10:45:50.769Z,11.90
2022-11-17T10:48:28.903Z,16.80
2022-11-17T10:51:01.467Z,11.30
2022-11-17T10:53:44.476Z,8.60
2022-11-17T10:56:21.652Z,13.80
2022-11-17T10:59:03.047Z,10.40
2022-11-17T11:01:36.535Z,8.20
2022-11-17T11:04:27.170Z,12.90
2022-11-17T11:07:11.705Z,11.80
2022-11-17T11:09:49.487Z,9.50
2022-11-17T11:12:29.374Z,8.30
2022-11-17T11:15:01.857Z,7.30
2022-11-17T11:17:33.143Z,9.70
2022-11-17T11:20:05.158Z,7.60
2022-11-17T11:22:44.884Z,13.70
2022-11-17T11:25:31.422Z,10.70
2022-11-17T11:28:18.643Z,11.30
2022-11-17T11:31:03.020Z,8.80
2022-11-17T11:33:39.216Z,8.10
2022-11-17T11:36:24.089Z,7.20
2022-11-17T11:39:02.133Z,8.40
2022-11-17T11:41:52.313Z,10.40
2022-11-17T11:44:38.688Z,11.10
2022-11-17T11:47:20.612Z,9.70
2022-11-17T11:49:56.987Z,12.00
2022-11-17T11:52:33.881Z,8.70
2022-11-17T11:55:15.752Z,8.20
2022-11-17T11:57:53.214Z,8.10
2022-11-17T12:00:25.215Z,9.10
2022-11-17T12:03:12.051Z,12.00
2022-11-17T12:05:54.011Z,10.20
2022-11-17T12:08:33.752Z,8.50
2022-11-17T12:11:26.237Z,7.60
2022-11-17T12:13:58.480Z,10.80
2022-11-17T12:16:34.074Z,7.90
2022-11-17T12:19:25.287Z,6.90
2022-11-17T12:21:58.123Z,9.80
2022-11-17T12:24:39.054Z,10.00
2022-11-17T12:27:43.201Z,7.90
2022-11-17T12:30:45.086Z,8.70
2022-11-17T12:33:16.223Z,8.20
2022-11-17T12:35:47.602Z,8.30
2022-11-17T12:38:42.932Z,5.20
2022-11-17T12:41:14.675Z,7.50
2022-11-17T12:43:46.330Z,15.00
2022-11-17T12:46:27.592Z,9.40
2022-11-17T12:49:08.115Z,6.40
2022-11-17T12:51:46.193Z,7.30
2022-11-17T12:54:28.202Z,9.90
2022-11-17T12:57:07.704Z,6.40
2022-11-17T13:00:10.797Z,6.50
2022-11-17T13:03:10.804Z,9.10
2022-11-17T13:05:42.376Z,8.00
2022-11-17T13:08:24.524Z,8.10
2022-11-17T13:11:07.252Z,5.80
2022-11-17T13:13:41.406Z,11.40
2022-11-17T13:16:21.811Z,7.70
2022-11-17T13:18:53.266Z,10.40
2022-11-17T13:21:33.858Z,7.10
2022-11-17T13:24:05.653Z,8.40
2022-11-17T13:26:38.300Z,9.40
2022-11-17T13:29:13.263Z,11.20
2022-11-17T13:31:44.461Z,6.90
2022-11-17T13:34:21.320Z,6.10
2022-11-17T13:37:01.051Z,11.60
2022-11-17T13:39:32.736Z,7.70
2022-11-17T13:42:04.417Z,7.60
2022-11-17T13:44:36.032Z,6.60
2022-11-17T13:50:32.629Z,7.10
2022-11-17T13:53:05.677Z,8.40
2022-11-17T13:55:37.485Z,7.80
2022-11-17T13:58:26.236Z,8.50
2022-11-17T14:00:59.377Z,7.40
2022-11-17T14:03:38.393Z,7.20
2022-11-17T14:06:11.203Z,8.70
2022-11-17T14:09:02.395Z,8.90
2022-11-17T14:11:33.768Z,9.00
2022-11-17T14:14:13.565Z,12.80
2022-11-17T14:16:45.650Z,10.20
2022-11-17T14:19:32.373Z,10.80
2022-11-17T14:22:27.683Z,7.30
2022-11-17T14:25:02.362Z,8.40
2022-11-17T14:27:41.877Z,10.50
2022-11-17T14:30:16.309Z,8.20
2022-11-17T14:32:47.284Z,5.90
2022-11-17T14:37:55.269Z,7.30
2022-11-17T14:40:26.042Z,8.40
2022-11-17T14:42:57.218Z,8.00
2022-11-17T14:45:28.029Z,12.20
2022-11-17T14:47:58.769Z,10.10
2022-11-17T14:50:29.728Z,7.80
2022-11-17T14:53:00.955Z,8.80
2022-11-17T14:55:31.891Z,10.40
2022-11-17T14:58:02.808Z,11.10
2022-11-17T15:00:33.843Z,8.20
2022-11-17T15:03:05.458Z,7.70
2022-11-17T15:05:36.690Z,7.00
2022-11-17T15:08:10.508Z,8.90
2022-11-17T15:10:45.716Z,8.70
2022-11-17T15:15:46.104Z,6.50
2022-11-17T15:18:17.210Z,8.40
2022-11-17T15:20:48.271Z,6.50
2022-11-17T15:23:19.315Z,7.90
2022-11-17T15:25:50.361Z,10.50
2022-11-17T15:28:23.037Z,8.20
2022-11-17T15:30:54.200Z,15.10
2022-11-17T15:33:25.584Z,10.20
2022-11-17T15:36:04.598Z,9.50
2022-11-17T15:38:36.276Z,9.90
2022-11-17T15:41:08.833Z,8.90
2022-11-17T15:43:40.984Z,11.60
2022-11-17T15:46:13.475Z,12.70
2022-11-17T15:48:45.856Z,9.60
2022-11-17T15:51:18.558Z,7.00
2022-11-17T15:53:51.040Z,9.00
2022-11-17T15:56:23.561Z,10.00
2022-11-17T15:59:01.773Z,11.10
2022-11-17T16:01:34.048Z,8.10
2022-11-17T16:04:07.248Z,6.90
2022-11-17T16:06:39.732Z,12.70
2022-11-17T16:09:11.882Z,11.30
2022-11-17T16:11:43.359Z,9.10
2022-11-17T16:14:14.947Z,13.10
2022-11-17T16:16:47.978Z,12.00
2022-11-17T16:19:19.086Z,13.80
2022-11-17T16:21:50.290Z,11.10
2022-11-17T16:24:21.084Z,17.30
2022-11-17T16:26:52.243Z,10.50
2022-11-17T16:29:23.168Z,10.30
2022-11-17T16:31:54.166Z,13.10
2022-11-17T16:34:26.173Z,14.60
2022-11-17T16:36:56.994Z,15.10
2022-11-17T16:39:27.893Z,10.20
2022-11-17T16:42:00.096Z,9.90
2022-11-17T16:44:31.188Z,14.70
2022-11-17T16:47:02.197Z,13.20
2022-11-17T16:49:35.432Z,11.00
2022-11-17T16:52:06.935Z,14.90
2022-11-17T16:54:37.814Z,13.00
2022-11-17T16:57:08.711Z,20.80
2022-11-17T16:59:39.901Z,16.30
2022-11-17T17:02:13.070Z,12.70
2022-11-17T17:04:43.908Z,15.20
2022-11-17T17:07:15.115Z,23.90
2022-11-17T17:09:45.988Z,15.80
2022-11-17T17:12:16.952Z,21.20
2022-11-17T17:14:47.863Z,15.80
2022-11-17T17:17:18.915Z,12.20
2022-11-17T17:19:49.734Z,22.20
2022-11-17T17:22:21.070Z,34.80
2022-11-17T17:24:52.096Z,24.70
2022-11-17T17:27:23.195Z,17.50
2022-11-17T17:29:57.073Z,20.00
2022-11-17T17:32:28.251Z,24.40
2022-11-17T17:34:59.063Z,17.50
2022-11-17T17:37:32.668Z,21.10
2022-11-17T17:40:04.126Z,21.30
2022-11-17T17:42:35.027Z,16.40
2022-11-17T17:45:07.028Z,15.70
2022-11-17T17:47:37.867Z,17.10
2022-11-17T17:50:10.648Z,20.80
2022-11-17T17:52:41.769Z,21.60
2022-11-17T17:55:12.780Z,22.00
2022-11-17T17:57:43.611Z,20.90
2022-11-17T18:00:18.114Z,30.20
2022-11-17T18:02:49.400Z,23.20
2022-11-17T18:05:23.425Z,23.30
2022-11-17T18:07:54.503Z,27.20
2022-11-17T18:10:25.664Z,24.40
2022-11-17T18:12:58.789Z,26.70
2022-11-17T18:15:29.650Z,28.00
2022-11-17T18:18:00.642Z,32.50
2022-11-17T18:20:32.746Z,32.00
2022-11-17T18:23:04.620Z,33.10
2022-11-17T18:25:36.125Z,36.40
2022-11-17T18:28:07.413Z,47.20
2022-11-17T18:30:38.395Z,41.40
2022-11-17T18:33:09.238Z,33.30
2022-11-17T18:35:40.387Z,35.80
2022-11-17T18:38:12.240Z,46.70
2022-11-17T18:40:43.389Z,42.20
2022-11-17T18:43:14.492Z,51.50
2022-11-17T18:45:45.302Z,48.20
2022-11-17T18:48:16.330Z,41.20
2022-11-17T18:51:17.870Z,42.60
2022-11-17T18:53:39.444Z,56.10
2022-11-17T18:56:12.979Z,49.40
2022-11-17T18:58:44.747Z,52.90
2022-11-17T19:01:17.595Z,62.40
2022-11-17T19:03:50.107Z,65.80
2022-11-17T19:06:22.538Z,53.80
2022-11-17T19:08:54.713Z,64.40
2022-11-17T19:11:26.021Z,60.70
2022-11-17T19:13:57.613Z,64.00
2022-11-17T19:16:29.482Z,65.10
2022-11-17T19:19:01.411Z,65.60
2022-11-17T19:21:33.845Z,70.50
2022-11-17T19:24:05.606Z,63.10
2022-11-17T19:26:37.082Z,60.90
2022-11-17T19:29:16.038Z,70.30
2022-11-17T19:31:48.839Z,60.50
2022-11-17T19:34:19.776Z,67.20
2022-11-17T19:36:50.558Z,53.40
2022-11-17T19:39:21.404Z,58.00
2022-11-17T19:41:53.357Z,55.90
2022-11-17T19:44:24.304Z,54.90
2022-11-17T19:46:55.702Z,53.30
2022-11-17T19:49:26.597Z,48.30
2022-11-17T19:51:57.502Z,55.00
2022-11-17T19:54:28.587Z,59.00
2022-11-17T19:56:59.445Z,41.00
2022-11-17T19:59:30.385Z,45.10
2022-11-17T20:02:01.180Z,48.80
2022-11-17T20:04:31.999Z,57.40
2022-11-17T20:07:04.317Z,50.80
2022-11-17T20:09:35.264Z,54.70
2022-11-17T20:12:06.534Z,58.50
2022-11-17T20:14:38.576Z,51.10
2022-11-17T20:17:09.354Z,50.50
2022-11-17T20:19:40.682Z,33.00
2022-11-17T20:22:13.540Z,35.80
2022-11-17T20:24:44.924Z,29.20
2022-11-17T20:27:15.701Z,30.70
2022-11-17T20:29:46.624Z,23.80
2022-11-17T20:32:17.815Z,26.40
2022-11-17T20:34:48.944Z,16.40
2022-11-17T20:37:20.211Z,16.40
2022-11-17T20:39:53.565Z,12.00
2022-11-17T20:42:24.947Z,14.20
2022-11-17T20:44:56.051Z,14.50
2022-11-17T20:47:28.767Z,11.30
2022-11-17T20:50:00.019Z,11.90
2022-11-17T20:52:31.997Z,15.90
2022-11-17T20:55:03.938Z,15.50
2022-11-17T20:57:35.455Z,11.70
2022-11-17T21:00:08.043Z,16.40
2022-11-17T21:02:39.279Z,14.40
2022-11-17T21:05:15.717Z,19.40
2022-11-17T21:07:47.045Z,18.00
2022-11-17T21:10:18.795Z,13.60
2022-11-17T21:12:49.822Z,19.80
2022-11-17T21:15:21.201Z,15.70
2022-11-17T21:18:10.677Z,17.40
2022-11-17T21:20:46.106Z,17.20
2022-11-17T21:23:17.248Z,14.70
2022-11-17T21:25:48.357Z,15.70
2022-11-17T21:28:19.853Z,18.60
2022-11-17T21:30:51.336Z,17.00
2022-11-17T21:33:22.350Z,15.80
2022-11-17T21:35:53.663Z,14.90
2022-11-17T21:38:25.361Z,19.60
2022-11-17T21:41:02.125Z,17.90
2022-11-17T21:43:33.907Z,28.30
2022-11-17T21:46:07.210Z,35.20
2022-11-17T21:48:39.401Z,24.30
2022-11-17T21:51:18.193Z,20.60
2022-11-17T21:53:53.270Z,21.10
2022-11-17T21:56:27.021Z,20.80
2022-11-17T21:59:03.247Z,19.90
2022-11-17T22:01:35.861Z,19.50
2022-11-17T22:04:07.370Z,22.80
2022-11-17T22:06:40.589Z,25.50
2022-11-17T22:09:15.805Z,23.20
2022-11-17T22:11:47.464Z,28.40
2022-11-17T22:14:21.121Z,24.00
2022-11-17T22:16:55.080Z,25.20
2022-11-17T22:19:28.365Z,29.60
2022-11-17T22:21:59.690Z,27.30
2022-11-17T22:24:30.612Z,24.20
2022-11-17T22:27:02.720Z,30.80
2022-11-17T22:29:34.137Z,27.10
2022-11-17T22:32:05.464Z,23.60
2022-11-17T22:34:36.945Z,25.10
2022-11-17T22:37:07.875Z,26.10
2022-11-17T22:39:39.459Z,27.10
2022-11-17T22:42:10.481Z,25.70
2022-11-17T22:44:41.820Z,23.40
2022-11-17T22:47:12.949Z,24.30
2022-11-17T22:49:44.305Z,24.70
2022-11-17T22:52:15.656Z,23.90
2022-11-17T22:54:47.131Z,25.30
2022-11-17T22:57:18.419Z,26.20
2022-11-17T22:59:49.649Z,24.50
2022-11-17T23:02:20.591Z,25.50
2022-11-17T23:04:53.748Z,31.40
2022-11-17T23:07:24.725Z,25.40
2022-11-17T23:09:55.837Z,28.00
2022-11-17T23:12:27.095Z,27.60
2022-11-17T23:14:58.188Z,31.60
2022-11-17T23:17:29.192Z,24.60
2022-11-17T23:20:00.333Z,27.10
2022-11-17T23:22:31.205Z,24.40
2022-11-17T23:25:08.257Z,21.40
2022-11-17T23:27:39.378Z,26.00
2022-11-17T23:30:13.184Z,23.40
2022-11-17T23:32:44.042Z,25.00
2022-11-17T23:35:15.107Z,28.60
2022-11-17T23:37:46.211Z,26.50
2022-11-17T23:40:18.699Z,26.80
2022-11-17T23:42:49.676Z,30.70
2022-11-17T23:45:20.980Z,28.60
2022-11-17T23:47:51.900Z,29.70
2022-11-17T23:50:22.859Z,25.80
2022-11-17T23:52:53.814Z,30.40
2022-11-17T23:55:24.776Z,22.70
2022-11-17T23:57:55.762Z,27.90
